Aeroporto :
LOGIN :

Iscrizione | Disclaimer

   EN    FR    IT 

 










Sommario :    VFR   VFR Marginale   IFR   IFR Intensivo   IFR Molto Intensivo
Visibilità : 
Base nubi : 
>= 8 km
>= 3000ft
5 / 8 km
1000 / 3000 ft
1500m / 5 km
500 / 1000 ft
800 / 1500m
200 / 500 ft
< 800m
< 200 ft
Simboli :   Temporali  Nebbia  Neve Forte  Precipitazioni Forti  Vento > 20 kt
SIGMETs :   Varie  Temporali  Ghiacco  Turbolenza  Onda orograficha  Ceneri Vulcaniche






- Altitudine del aeroporto : 1302 ft
- Codice IATA : GNB


LFLS - Grenoble / St. Geoirs

ULTIMO METAR :
  • 281230Z AUTO 32012KT 9999 FEW022 SCT028 BKN033 06/02 Q1006 TEMPO 1200 -SHSN SCT025TCU BKN030

METARs OBSOLETI :
  • 281200Z AUTO 30008KT 9999 SCT022 BKN033 BKN054 06/03 Q1006 TEMPO 1200 -SHSN SCT025TCU BKN030
  • 281130Z AUTO 29008KT 9999 BKN027 06/03 Q1006 TEMPO 1200 -SHSN SCT025TCU BKN030
  • 281100Z AUTO 31010KT 9999 SCT031 BKN042 BKN052 06/03 Q1006 TEMPO 1200 -SHSN SCT025TCU BKN030
  • 281030Z AUTO 29006KT 9999 FEW029 BKN035 BKN090 07/04 Q1006 TEMPO 1200 -SHSN SCT025TCU BKN030
  • 281000Z AUTO 31010KT 9999 FEW016 SCT023 OVC031 06/02 Q1006 TEMPO 1200 -SHSN SCT025TCU BKN030
  • 280930Z AUTO VRB01KT 9999 BKN025 OVC032 06/04 Q1006 TEMPO 1200 -SHSN SCT025TCU BKN030
  • 280900Z AUTO 21003KT 170V260 9999 FEW014 BKN023 OVC029 05/04 Q1006 TEMPO 4000 SHRA SCT025TCU BKN030
  • 280830Z AUTO 14005KT 9999 FEW017 BKN023 BKN028 05/04 Q1006 TEMPO 4000 SHRA BKN012 BECMG 32010KT

TAF TAF LFLS
Valido dal 28 a 09 ore il 29 a 09 ore UTC


280800Z 2809/2909 34005KT 9999 SCT040
PROB40
TEMPO 2810/2817 4000 SHRA SCT025TCU BKN030
PROB30
TEMPO 2811/2816 1200 -SHSN
BECMG 2819/2821 VRB02KT CAVOK
PROB40
TEMPO 2900/2908 4000 BR BKN004
ATIS : +33 4 76 65 55 89



MetMap, La meteo Aeronautica in un colpo d'occhio ! - Copyright ORBIFLY Dicembre 2007 - Disclaimer

ORBIFLY MET'MAP TEAM :

Programmazione e sviluppo : Alexandra Zaïnal
Concezione : Baudouin d'Aumeries
Supporto tecnico e logistico : Manuel Goepfert
Aiuto : Marc-Olivier Méhu
Aiuto per la traduzione : Arnaldo La Scala




FONTI E CREDITI :

   NOAA